sensor_id;sensor_type;location;lat;lon;timestamp;P1;durP1;ratioP1;P2;durP2;ratioP2
76228;SDS011;65021;53.174;18.160;2023-08-06T00:00:28;6.80;;;3.60;;
76228;SDS011;65021;53.174;18.160;2023-08-06T00:03:15;4.30;;;2.60;;
76228;SDS011;65021;53.174;18.160;2023-08-06T00:05:42;7.00;;;3.40;;
76228;SDS011;65021;53.174;18.160;2023-08-06T00:08:09;5.90;;;3.50;;
76228;SDS011;65021;53.174;18.160;2023-08-06T00:10:36;5.00;;;2.90;;
76228;SDS011;65021;53.174;18.160;2023-08-06T00:13:02;8.20;;;3.40;;
76228;SDS011;65021;53.174;18.160;2023-08-06T00:15:29;5.70;;;3.00;;
76228;SDS011;65021;53.174;18.160;2023-08-06T00:17:55;8.10;;;4.20;;
76228;SDS011;65021;53.174;18.160;2023-08-06T00:20:22;6.50;;;3.40;;
76228;SDS011;65021;53.174;18.160;2023-08-06T00:22:48;6.50;;;3.40;;
76228;SDS011;65021;53.174;18.160;2023-08-06T00:25:15;7.70;;;3.30;;
76228;SDS011;65021;53.174;18.160;2023-08-06T00:27:41;9.00;;;4.30;;
76228;SDS011;65021;53.174;18.160;2023-08-06T00:30:08;6.20;;;3.20;;
76228;SDS011;65021;53.174;18.160;2023-08-06T00:32:35;7.30;;;3.30;;
76228;SDS011;65021;53.174;18.160;2023-08-06T00:35:02;4.70;;;2.70;;
76228;SDS011;65021;53.174;18.160;2023-08-06T00:37:29;4.50;;;2.80;;
76228;SDS011;65021;53.174;18.160;2023-08-06T00:39:56;5.30;;;2.90;;
76228;SDS011;65021;53.174;18.160;2023-08-06T00:42:22;6.50;;;3.70;;
76228;SDS011;65021;53.174;18.160;2023-08-06T00:44:49;7.80;;;3.90;;
76228;SDS011;65021;53.174;18.160;2023-08-06T00:47:15;5.50;;;3.20;;
76228;SDS011;65021;53.174;18.160;2023-08-06T00:49:42;9.80;;;3.20;;
76228;SDS011;65021;53.174;18.160;2023-08-06T00:52:09;5.80;;;3.40;;
76228;SDS011;65021;53.174;18.160;2023-08-06T00:54:36;8.10;;;3.80;;
76228;SDS011;65021;53.174;18.160;2023-08-06T00:57:03;8.10;;;3.60;;
76228;SDS011;65021;53.174;18.160;2023-08-06T00:59:33;7.30;;;3.40;;
76228;SDS011;65021;53.174;18.160;2023-08-06T01:02:00;5.40;;;3.40;;
76228;SDS011;65021;53.174;18.160;2023-08-06T01:04:27;9.10;;;3.90;;
76228;SDS011;65021;53.174;18.160;2023-08-06T01:17:26;5.60;;;2.50;;
76228;SDS011;65021;53.174;18.160;2023-08-06T01:19:53;8.30;;;3.90;;
76228;SDS011;65021;53.174;18.160;2023-08-06T01:22:19;9.60;;;4.20;;
76228;SDS011;65021;53.174;18.160;2023-08-06T01:24:46;9.50;;;4.10;;
76228;SDS011;65021;53.174;18.160;2023-08-06T01:30:19;5.90;;;3.00;;
76228;SDS011;65021;53.174;18.160;2023-08-06T01:32:55;10.10;;;4.50;;
76228;SDS011;65021;53.174;18.160;2023-08-06T01:35:25;9.50;;;4.60;;
76228;SDS011;65021;53.174;18.160;2023-08-06T01:37:53;7.20;;;3.90;;
76228;SDS011;65021;53.174;18.160;2023-08-06T01:40:22;7.50;;;4.30;;
76228;SDS011;65021;53.174;18.160;2023-08-06T01:42:48;8.50;;;4.40;;
76228;SDS011;65021;53.174;18.160;2023-08-06T01:45:15;8.30;;;4.50;;
76228;SDS011;65021;53.174;18.160;2023-08-06T01:47:42;9.50;;;5.20;;
76228;SDS011;65021;53.174;18.160;2023-08-06T01:50:09;8.10;;;4.20;;
76228;SDS011;65021;53.174;18.160;2023-08-06T01:52:35;10.30;;;4.70;;
76228;SDS011;65021;53.174;18.160;2023-08-06T01:55:02;8.50;;;4.80;;
76228;SDS011;65021;53.174;18.160;2023-08-06T01:57:29;8.50;;;4.90;;
76228;SDS011;65021;53.174;18.160;2023-08-06T01:59:55;8.60;;;4.90;;
76228;SDS011;65021;53.174;18.160;2023-08-06T02:02:22;9.80;;;5.80;;
76228;SDS011;65021;53.174;18.160;2023-08-06T02:04:48;6.90;;;4.30;;
76228;SDS011;65021;53.174;18.160;2023-08-06T02:07:15;8.70;;;4.40;;
76228;SDS011;65021;53.174;18.160;2023-08-06T02:09:41;7.30;;;4.10;;
76228;SDS011;65021;53.174;18.160;2023-08-06T02:12:08;7.80;;;5.00;;
76228;SDS011;65021;53.174;18.160;2023-08-06T02:14:34;7.10;;;4.10;;
76228;SDS011;65021;53.174;18.160;2023-08-06T02:17:01;6.10;;;3.70;;
76228;SDS011;65021;53.174;18.160;2023-08-06T02:19:28;6.70;;;4.10;;
76228;SDS011;65021;53.174;18.160;2023-08-06T02:21:54;5.70;;;3.40;;
76228;SDS011;65021;53.174;18.160;2023-08-06T02:24:21;10.30;;;4.10;;
76228;SDS011;65021;53.174;18.160;2023-08-06T02:26:47;8.00;;;4.20;;
76228;SDS011;65021;53.174;18.160;2023-08-06T02:29:17;6.60;;;4.30;;
76228;SDS011;65021;53.174;18.160;2023-08-06T02:31:44;6.70;;;3.50;;
76228;SDS011;65021;53.174;18.160;2023-08-06T02:34:10;8.90;;;4.10;;
76228;SDS011;65021;53.174;18.160;2023-08-06T02:36:37;6.70;;;4.10;;
76228;SDS011;65021;53.174;18.160;2023-08-06T02:39:03;7.60;;;3.80;;
76228;SDS011;65021;53.174;18.160;2023-08-06T02:41:30;6.70;;;3.50;;
76228;SDS011;65021;53.174;18.160;2023-08-06T02:43:56;6.50;;;4.10;;
76228;SDS011;65021;53.174;18.160;2023-08-06T02:46:23;11.60;;;3.70;;
76228;SDS011;65021;53.174;18.160;2023-08-06T02:48:49;8.40;;;4.00;;
76228;SDS011;65021;53.174;18.160;2023-08-06T02:51:16;6.30;;;3.20;;
76228;SDS011;65021;53.174;18.160;2023-08-06T02:53:42;6.00;;;3.50;;
76228;SDS011;65021;53.174;18.160;2023-08-06T02:56:09;6.80;;;4.20;;
76228;SDS011;65021;53.174;18.160;2023-08-06T02:58:35;8.60;;;4.40;;
76228;SDS011;65021;53.174;18.160;2023-08-06T03:01:02;6.70;;;4.30;;
76228;SDS011;65021;53.174;18.160;2023-08-06T03:05:58;8.20;;;3.50;;
76228;SDS011;65021;53.174;18.160;2023-08-06T03:08:25;4.90;;;2.40;;
76228;SDS011;65021;53.174;18.160;2023-08-06T03:10:52;6.00;;;3.70;;
76228;SDS011;65021;53.174;18.160;2023-08-06T03:13:18;7.90;;;3.60;;
76228;SDS011;65021;53.174;18.160;2023-08-06T03:15:52;6.90;;;3.00;;
76228;SDS011;65021;53.174;18.160;2023-08-06T03:18:20;6.70;;;3.80;;
76228;SDS011;65021;53.174;18.160;2023-08-06T03:20:47;7.10;;;3.90;;
76228;SDS011;65021;53.174;18.160;2023-08-06T03:23:14;6.10;;;3.00;;
76228;SDS011;65021;53.174;18.160;2023-08-06T03:25:41;6.70;;;3.70;;
76228;SDS011;65021;53.174;18.160;2023-08-06T03:28:08;5.90;;;3.00;;
76228;SDS011;65021;53.174;18.160;2023-08-06T03:30:34;6.80;;;3.40;;
76228;SDS011;65021;53.174;18.160;2023-08-06T03:33:01;5.80;;;3.40;;
76228;SDS011;65021;53.174;18.160;2023-08-06T03:35:27;7.60;;;3.30;;
76228;SDS011;65021;53.174;18.160;2023-08-06T03:37:54;6.60;;;3.70;;
76228;SDS011;65021;53.174;18.160;2023-08-06T03:40:20;5.90;;;3.00;;
76228;SDS011;65021;53.174;18.160;2023-08-06T03:42:47;8.60;;;4.00;;
76228;SDS011;65021;53.174;18.160;2023-08-06T03:45:13;6.50;;;3.60;;
76228;SDS011;65021;53.174;18.160;2023-08-06T03:47:40;5.90;;;3.40;;
76228;SDS011;65021;53.174;18.160;2023-08-06T03:50:07;6.10;;;3.50;;
76228;SDS011;65021;53.174;18.160;2023-08-06T03:52:33;8.80;;;3.60;;
76228;SDS011;65021;53.174;18.160;2023-08-06T03:55:00;6.00;;;3.30;;
76228;SDS011;65021;53.174;18.160;2023-08-06T03:57:26;9.20;;;3.10;;
76228;SDS011;65021;53.174;18.160;2023-08-06T03:59:53;6.90;;;3.20;;
76228;SDS011;65021;53.174;18.160;2023-08-06T04:02:20;5.80;;;2.80;;
76228;SDS011;65021;53.174;18.160;2023-08-06T04:04:46;8.90;;;4.00;;
76228;SDS011;65021;53.174;18.160;2023-08-06T04:07:13;5.50;;;2.80;;
76228;SDS011;65021;53.174;18.160;2023-08-06T04:09:58;6.10;;;3.60;;
76228;SDS011;65021;53.174;18.160;2023-08-06T04:12:26;7.00;;;3.20;;
76228;SDS011;65021;53.174;18.160;2023-08-06T04:14:54;6.00;;;2.20;;
76228;SDS011;65021;53.174;18.160;2023-08-06T04:17:21;4.80;;;2.80;;
76228;SDS011;65021;53.174;18.160;2023-08-06T04:19:51;6.10;;;3.00;;
76228;SDS011;65021;53.174;18.160;2023-08-06T04:22:26;7.40;;;3.60;;
76228;SDS011;65021;53.174;18.160;2023-08-06T04:24:53;6.90;;;3.30;;
76228;SDS011;65021;53.174;18.160;2023-08-06T04:27:19;8.00;;;3.50;;
76228;SDS011;65021;53.174;18.160;2023-08-06T04:29:46;6.60;;;3.40;;
76228;SDS011;65021;53.174;18.160;2023-08-06T04:32:13;6.50;;;3.00;;
76228;SDS011;65021;53.174;18.160;2023-08-06T04:34:39;5.80;;;2.80;;
76228;SDS011;65021;53.174;18.160;2023-08-06T04:37:06;4.60;;;2.60;;
76228;SDS011;65021;53.174;18.160;2023-08-06T04:39:33;7.00;;;3.20;;
76228;SDS011;65021;53.174;18.160;2023-08-06T04:41:59;4.90;;;3.10;;
76228;SDS011;65021;53.174;18.160;2023-08-06T04:44:26;4.10;;;2.30;;
76228;SDS011;65021;53.174;18.160;2023-08-06T04:46:53;4.60;;;2.90;;
76228;SDS011;65021;53.174;18.160;2023-08-06T04:49:22;3.70;;;2.00;;
76228;SDS011;65021;53.174;18.160;2023-08-06T04:51:49;6.10;;;1.90;;
76228;SDS011;65021;53.174;18.160;2023-08-06T04:54:16;5.70;;;2.30;;
76228;SDS011;65021;53.174;18.160;2023-08-06T04:56:43;3.60;;;1.80;;
76228;SDS011;65021;53.174;18.160;2023-08-06T04:59:09;4.40;;;2.20;;
76228;SDS011;65021;53.174;18.160;2023-08-06T05:01:36;4.90;;;2.60;;
76228;SDS011;65021;53.174;18.160;2023-08-06T05:04:02;4.60;;;2.20;;
76228;SDS011;65021;53.174;18.160;2023-08-06T05:06:29;5.20;;;2.90;;
76228;SDS011;65021;53.174;18.160;2023-08-06T05:08:55;5.50;;;2.70;;
76228;SDS011;65021;53.174;18.160;2023-08-06T05:11:22;5.70;;;2.70;;
76228;SDS011;65021;53.174;18.160;2023-08-06T05:13:50;4.60;;;2.60;;
76228;SDS011;65021;53.174;18.160;2023-08-06T05:16:16;4.20;;;2.60;;
76228;SDS011;65021;53.174;18.160;2023-08-06T05:18:43;6.00;;;3.40;;
76228;SDS011;65021;53.174;18.160;2023-08-06T05:21:09;5.20;;;2.80;;
76228;SDS011;65021;53.174;18.160;2023-08-06T05:23:36;7.20;;;3.70;;
76228;SDS011;65021;53.174;18.160;2023-08-06T05:26:02;8.00;;;4.20;;
76228;SDS011;65021;53.174;18.160;2023-08-06T05:28:29;8.60;;;4.70;;
76228;SDS011;65021;53.174;18.160;2023-08-06T05:30:55;5.60;;;4.00;;
76228;SDS011;65021;53.174;18.160;2023-08-06T05:33:22;9.10;;;6.00;;
76228;SDS011;65021;53.174;18.160;2023-08-06T05:35:49;6.30;;;4.40;;
76228;SDS011;65021;53.174;18.160;2023-08-06T05:38:16;8.60;;;6.00;;
76228;SDS011;65021;53.174;18.160;2023-08-06T05:40:43;8.50;;;6.20;;
76228;SDS011;65021;53.174;18.160;2023-08-06T05:43:10;8.10;;;4.90;;
76228;SDS011;65021;53.174;18.160;2023-08-06T05:45:36;8.20;;;5.20;;
76228;SDS011;65021;53.174;18.160;2023-08-06T05:48:03;9.00;;;5.00;;
76228;SDS011;65021;53.174;18.160;2023-08-06T05:50:30;7.70;;;4.90;;
76228;SDS011;65021;53.174;18.160;2023-08-06T05:52:56;6.40;;;3.90;;
76228;SDS011;65021;53.174;18.160;2023-08-06T05:55:23;7.60;;;4.00;;
76228;SDS011;65021;53.174;18.160;2023-08-06T05:57:49;7.30;;;4.00;;
76228;SDS011;65021;53.174;18.160;2023-08-06T06:00:18;8.10;;;4.60;;
76228;SDS011;65021;53.174;18.160;2023-08-06T06:02:45;5.90;;;3.80;;
76228;SDS011;65021;53.174;18.160;2023-08-06T06:05:12;5.40;;;3.80;;
76228;SDS011;65021;53.174;18.160;2023-08-06T06:07:38;6.50;;;4.30;;
76228;SDS011;65021;53.174;18.160;2023-08-06T06:10:05;8.90;;;4.20;;
76228;SDS011;65021;53.174;18.160;2023-08-06T06:12:32;7.60;;;4.50;;
76228;SDS011;65021;53.174;18.160;2023-08-06T06:14:59;6.90;;;4.00;;
76228;SDS011;65021;53.174;18.160;2023-08-06T06:17:27;6.90;;;4.40;;
76228;SDS011;65021;53.174;18.160;2023-08-06T06:19:55;7.20;;;4.40;;
76228;SDS011;65021;53.174;18.160;2023-08-06T06:22:22;8.40;;;4.70;;
76228;SDS011;65021;53.174;18.160;2023-08-06T06:24:48;7.40;;;4.80;;
76228;SDS011;65021;53.174;18.160;2023-08-06T06:27:15;6.90;;;4.80;;
76228;SDS011;65021;53.174;18.160;2023-08-06T06:29:41;8.60;;;4.80;;
76228;SDS011;65021;53.174;18.160;2023-08-06T06:32:08;8.00;;;4.60;;
76228;SDS011;65021;53.174;18.160;2023-08-06T06:34:34;10.50;;;5.00;;
76228;SDS011;65021;53.174;18.160;2023-08-06T06:37:01;7.70;;;4.50;;
76228;SDS011;65021;53.174;18.160;2023-08-06T06:39:27;6.70;;;4.50;;
76228;SDS011;65021;53.174;18.160;2023-08-06T06:41:54;8.10;;;4.80;;
76228;SDS011;65021;53.174;18.160;2023-08-06T06:44:20;7.20;;;4.80;;
76228;SDS011;65021;53.174;18.160;2023-08-06T06:46:47;8.90;;;4.80;;
76228;SDS011;65021;53.174;18.160;2023-08-06T06:49:13;6.90;;;4.50;;
76228;SDS011;65021;53.174;18.160;2023-08-06T06:51:40;6.70;;;3.70;;
76228;SDS011;65021;53.174;18.160;2023-08-06T06:54:07;7.20;;;4.50;;
76228;SDS011;65021;53.174;18.160;2023-08-06T06:56:33;8.70;;;4.70;;
76228;SDS011;65021;53.174;18.160;2023-08-06T06:59:00;6.20;;;4.50;;
76228;SDS011;65021;53.174;18.160;2023-08-06T07:01:27;6.90;;;4.00;;
76228;SDS011;65021;53.174;18.160;2023-08-06T07:03:53;7.10;;;4.50;;
76228;SDS011;65021;53.174;18.160;2023-08-06T07:06:20;6.40;;;3.80;;
76228;SDS011;65021;53.174;18.160;2023-08-06T07:08:46;6.10;;;3.80;;
76228;SDS011;65021;53.174;18.160;2023-08-06T07:11:13;6.10;;;4.00;;
76228;SDS011;65021;53.174;18.160;2023-08-06T07:13:40;7.80;;;4.60;;
76228;SDS011;65021;53.174;18.160;2023-08-06T07:16:06;6.90;;;5.30;;
76228;SDS011;65021;53.174;18.160;2023-08-06T07:18:33;6.40;;;4.40;;
76228;SDS011;65021;53.174;18.160;2023-08-06T07:20:59;7.90;;;5.10;;
76228;SDS011;65021;53.174;18.160;2023-08-06T07:23:26;7.70;;;5.00;;
76228;SDS011;65021;53.174;18.160;2023-08-06T07:25:53;10.90;;;6.50;;
76228;SDS011;65021;53.174;18.160;2023-08-06T07:28:22;9.40;;;5.70;;
76228;SDS011;65021;53.174;18.160;2023-08-06T07:30:50;8.40;;;5.50;;
76228;SDS011;65021;53.174;18.160;2023-08-06T07:33:17;7.20;;;4.80;;
76228;SDS011;65021;53.174;18.160;2023-08-06T07:35:43;10.30;;;5.70;;
76228;SDS011;65021;53.174;18.160;2023-08-06T07:38:13;6.60;;;5.20;;
76228;SDS011;65021;53.174;18.160;2023-08-06T07:40:39;11.10;;;6.20;;
76228;SDS011;65021;53.174;18.160;2023-08-06T07:43:06;8.70;;;4.90;;
76228;SDS011;65021;53.174;18.160;2023-08-06T07:45:36;7.20;;;5.00;;
76228;SDS011;65021;53.174;18.160;2023-08-06T07:48:04;8.10;;;5.40;;
76228;SDS011;65021;53.174;18.160;2023-08-06T07:50:33;7.50;;;5.30;;
76228;SDS011;65021;53.174;18.160;2023-08-06T07:53:00;7.90;;;5.00;;
76228;SDS011;65021;53.174;18.160;2023-08-06T07:55:26;7.70;;;5.10;;
76228;SDS011;65021;53.174;18.160;2023-08-06T07:57:53;7.30;;;5.30;;
76228;SDS011;65021;53.174;18.160;2023-08-06T08:00:20;8.90;;;5.30;;
76228;SDS011;65021;53.174;18.160;2023-08-06T08:02:47;10.80;;;5.50;;
76228;SDS011;65021;53.174;18.160;2023-08-06T08:05:13;7.30;;;4.90;;
76228;SDS011;65021;53.174;18.160;2023-08-06T08:07:40;9.30;;;5.30;;
76228;SDS011;65021;53.174;18.160;2023-08-06T08:10:07;8.30;;;5.00;;
76228;SDS011;65021;53.174;18.160;2023-08-06T08:12:34;6.60;;;4.10;;
76228;SDS011;65021;53.174;18.160;2023-08-06T08:15:00;4.60;;;3.30;;
76228;SDS011;65021;53.174;18.160;2023-08-06T08:17:27;5.70;;;3.90;;
76228;SDS011;65021;53.174;18.160;2023-08-06T08:19:53;7.80;;;4.60;;
76228;SDS011;65021;53.174;18.160;2023-08-06T08:22:20;6.10;;;4.00;;
76228;SDS011;65021;53.174;18.160;2023-08-06T08:24:47;7.00;;;4.40;;
76228;SDS011;65021;53.174;18.160;2023-08-06T08:27:14;7.00;;;3.80;;
76228;SDS011;65021;53.174;18.160;2023-08-06T08:29:40;6.40;;;4.10;;
76228;SDS011;65021;53.174;18.160;2023-08-06T08:32:07;6.50;;;3.60;;
76228;SDS011;65021;53.174;18.160;2023-08-06T08:37:00;6.10;;;3.50;;
76228;SDS011;65021;53.174;18.160;2023-08-06T08:39:26;6.70;;;3.40;;
76228;SDS011;65021;53.174;18.160;2023-08-06T08:41:53;5.80;;;3.00;;
76228;SDS011;65021;53.174;18.160;2023-08-06T08:44:20;5.40;;;3.30;;
76228;SDS011;65021;53.174;18.160;2023-08-06T08:46:47;7.60;;;3.50;;
76228;SDS011;65021;53.174;18.160;2023-08-06T08:49:14;5.90;;;4.00;;
76228;SDS011;65021;53.174;18.160;2023-08-06T08:51:41;6.40;;;3.70;;
76228;SDS011;65021;53.174;18.160;2023-08-06T08:54:11;6.70;;;4.20;;
76228;SDS011;65021;53.174;18.160;2023-08-06T08:56:40;6.30;;;3.80;;
76228;SDS011;65021;53.174;18.160;2023-08-06T08:59:07;6.20;;;3.50;;
76228;SDS011;65021;53.174;18.160;2023-08-06T09:01:34;6.20;;;4.00;;
76228;SDS011;65021;53.174;18.160;2023-08-06T09:04:01;6.50;;;3.50;;
76228;SDS011;65021;53.174;18.160;2023-08-06T09:06:28;6.80;;;4.40;;
76228;SDS011;65021;53.174;18.160;2023-08-06T09:08:59;7.70;;;5.00;;
76228;SDS011;65021;53.174;18.160;2023-08-06T09:11:32;8.70;;;5.30;;
76228;SDS011;65021;53.174;18.160;2023-08-06T09:14:07;8.00;;;4.60;;
76228;SDS011;65021;53.174;18.160;2023-08-06T09:16:37;8.50;;;4.20;;
76228;SDS011;65021;53.174;18.160;2023-08-06T09:19:10;9.70;;;5.00;;
76228;SDS011;65021;53.174;18.160;2023-08-06T09:21:46;9.50;;;5.00;;
76228;SDS011;65021;53.174;18.160;2023-08-06T09:24:17;9.90;;;5.30;;
76228;SDS011;65021;53.174;18.160;2023-08-06T09:26:44;7.10;;;4.80;;
76228;SDS011;65021;53.174;18.160;2023-08-06T09:29:11;8.30;;;4.60;;
76228;SDS011;65021;53.174;18.160;2023-08-06T09:31:41;7.10;;;4.60;;
76228;SDS011;65021;53.174;18.160;2023-08-06T09:34:16;7.50;;;4.40;;
76228;SDS011;65021;53.174;18.160;2023-08-06T09:36:48;7.70;;;4.40;;
76228;SDS011;65021;53.174;18.160;2023-08-06T09:39:18;6.50;;;4.00;;
76228;SDS011;65021;53.174;18.160;2023-08-06T09:41:46;7.20;;;4.50;;
76228;SDS011;65021;53.174;18.160;2023-08-06T09:44:17;6.30;;;4.50;;
76228;SDS011;65021;53.174;18.160;2023-08-06T09:46:47;7.40;;;4.70;;
76228;SDS011;65021;53.174;18.160;2023-08-06T09:49:18;7.80;;;5.00;;
76228;SDS011;65021;53.174;18.160;2023-08-06T09:51:46;7.80;;;5.00;;
76228;SDS011;65021;53.174;18.160;2023-08-06T09:54:17;7.50;;;4.90;;
76228;SDS011;65021;53.174;18.160;2023-08-06T09:56:47;8.50;;;4.90;;
76228;SDS011;65021;53.174;18.160;2023-08-06T09:59:14;9.60;;;5.70;;
76228;SDS011;65021;53.174;18.160;2023-08-06T10:01:42;8.20;;;5.60;;
76228;SDS011;65021;53.174;18.160;2023-08-06T10:04:09;8.30;;;5.10;;
76228;SDS011;65021;53.174;18.160;2023-08-06T10:06:39;8.60;;;5.30;;
76228;SDS011;65021;53.174;18.160;2023-08-06T10:09:06;7.90;;;5.80;;
76228;SDS011;65021;53.174;18.160;2023-08-06T10:11:38;7.90;;;5.00;;
76228;SDS011;65021;53.174;18.160;2023-08-06T10:16:49;9.40;;;5.50;;
76228;SDS011;65021;53.174;18.160;2023-08-06T10:19:16;5.70;;;3.70;;
76228;SDS011;65021;53.174;18.160;2023-08-06T10:24:52;9.60;;;6.20;;
76228;SDS011;65021;53.174;18.160;2023-08-06T10:27:30;10.80;;;6.80;;
76228;SDS011;65021;53.174;18.160;2023-08-06T10:32:52;9.30;;;5.80;;
76228;SDS011;65021;53.174;18.160;2023-08-06T10:38:27;9.20;;;6.00;;
76228;SDS011;65021;53.174;18.160;2023-08-06T10:43:37;7.30;;;5.00;;
76228;SDS011;65021;53.174;18.160;2023-08-06T10:46:11;8.80;;;6.10;;
76228;SDS011;65021;53.174;18.160;2023-08-06T10:48:46;7.60;;;5.60;;
76228;SDS011;65021;53.174;18.160;2023-08-06T10:51:13;9.60;;;6.90;;
76228;SDS011;65021;53.174;18.160;2023-08-06T10:53:41;7.10;;;5.30;;
76228;SDS011;65021;53.174;18.160;2023-08-06T10:58:40;8.80;;;6.20;;
76228;SDS011;65021;53.174;18.160;2023-08-06T11:01:08;9.10;;;6.20;;
76228;SDS011;65021;53.174;18.160;2023-08-06T11:03:35;8.10;;;5.90;;
76228;SDS011;65021;53.174;18.160;2023-08-06T11:06:03;7.60;;;4.80;;
76228;SDS011;65021;53.174;18.160;2023-08-06T11:08:33;9.10;;;5.60;;
76228;SDS011;65021;53.174;18.160;2023-08-06T11:11:11;8.30;;;5.80;;
76228;SDS011;65021;53.174;18.160;2023-08-06T11:13:39;8.60;;;5.80;;
76228;SDS011;65021;53.174;18.160;2023-08-06T11:16:10;8.60;;;6.30;;
76228;SDS011;65021;53.174;18.160;2023-08-06T11:18:37;9.60;;;6.80;;
76228;SDS011;65021;53.174;18.160;2023-08-06T11:21:04;10.00;;;6.20;;
76228;SDS011;65021;53.174;18.160;2023-08-06T11:23:30;10.10;;;6.70;;
76228;SDS011;65021;53.174;18.160;2023-08-06T11:25:57;9.70;;;5.80;;
76228;SDS011;65021;53.174;18.160;2023-08-06T11:28:24;9.80;;;6.80;;
76228;SDS011;65021;53.174;18.160;2023-08-06T11:30:51;9.60;;;7.40;;
76228;SDS011;65021;53.174;18.160;2023-08-06T11:33:22;10.40;;;7.40;;
76228;SDS011;65021;53.174;18.160;2023-08-06T11:35:51;10.60;;;7.10;;
76228;SDS011;65021;53.174;18.160;2023-08-06T11:38:20;10.60;;;7.30;;
76228;SDS011;65021;53.174;18.160;2023-08-06T11:40:47;12.10;;;7.20;;
76228;SDS011;65021;53.174;18.160;2023-08-06T11:43:14;11.70;;;8.00;;
76228;SDS011;65021;53.174;18.160;2023-08-06T11:45:41;12.70;;;8.30;;
76228;SDS011;65021;53.174;18.160;2023-08-06T11:48:08;9.30;;;6.00;;
76228;SDS011;65021;53.174;18.160;2023-08-06T11:50:38;13.30;;;8.80;;
76228;SDS011;65021;53.174;18.160;2023-08-06T11:53:05;13.30;;;9.50;;
76228;SDS011;65021;53.174;18.160;2023-08-06T11:55:32;13.20;;;8.50;;
76228;SDS011;65021;53.174;18.160;2023-08-06T11:58:02;13.20;;;9.10;;
76228;SDS011;65021;53.174;18.160;2023-08-06T12:00:33;9.10;;;6.50;;
76228;SDS011;65021;53.174;18.160;2023-08-06T12:02:59;14.20;;;9.00;;
76228;SDS011;65021;53.174;18.160;2023-08-06T12:05:29;15.80;;;10.00;;
76228;SDS011;65021;53.174;18.160;2023-08-06T12:07:58;13.30;;;9.70;;
76228;SDS011;65021;53.174;18.160;2023-08-06T12:10:27;15.40;;;10.20;;
76228;SDS011;65021;53.174;18.160;2023-08-06T12:12:54;13.70;;;9.80;;
76228;SDS011;65021;53.174;18.160;2023-08-06T12:15:22;13.50;;;8.30;;
76228;SDS011;65021;53.174;18.160;2023-08-06T12:17:49;17.30;;;11.00;;
76228;SDS011;65021;53.174;18.160;2023-08-06T12:20:16;16.10;;;9.90;;
76228;SDS011;65021;53.174;18.160;2023-08-06T12:22:42;11.90;;;7.60;;
76228;SDS011;65021;53.174;18.160;2023-08-06T12:25:10;17.90;;;10.90;;
76228;SDS011;65021;53.174;18.160;2023-08-06T12:27:39;13.60;;;9.40;;
76228;SDS011;65021;53.174;18.160;2023-08-06T12:30:09;19.80;;;11.70;;
76228;SDS011;65021;53.174;18.160;2023-08-06T12:32:37;18.40;;;11.40;;
76228;SDS011;65021;53.174;18.160;2023-08-06T12:35:04;18.30;;;12.90;;
76228;SDS011;65021;53.174;18.160;2023-08-06T12:37:33;16.30;;;10.70;;
76228;SDS011;65021;53.174;18.160;2023-08-06T12:40:00;18.10;;;12.00;;
76228;SDS011;65021;53.174;18.160;2023-08-06T12:42:27;17.10;;;11.90;;
76228;SDS011;65021;53.174;18.160;2023-08-06T12:44:54;16.40;;;11.30;;
76228;SDS011;65021;53.174;18.160;2023-08-06T12:47:20;15.60;;;11.30;;
76228;SDS011;65021;53.174;18.160;2023-08-06T12:49:47;14.70;;;8.20;;
76228;SDS011;65021;53.174;18.160;2023-08-06T12:52:13;17.70;;;11.40;;
76228;SDS011;65021;53.174;18.160;2023-08-06T12:54:41;17.00;;;12.00;;
76228;SDS011;65021;53.174;18.160;2023-08-06T12:57:08;16.20;;;10.90;;
76228;SDS011;65021;53.174;18.160;2023-08-06T12:59:35;19.90;;;11.80;;
76228;SDS011;65021;53.174;18.160;2023-08-06T13:02:03;16.50;;;11.60;;
76228;SDS011;65021;53.174;18.160;2023-08-06T13:04:30;14.90;;;11.50;;
76228;SDS011;65021;53.174;18.160;2023-08-06T13:06:58;18.10;;;12.20;;
76228;SDS011;65021;53.174;18.160;2023-08-06T13:09:26;16.20;;;11.00;;
76228;SDS011;65021;53.174;18.160;2023-08-06T13:11:54;13.90;;;10.50;;
76228;SDS011;65021;53.174;18.160;2023-08-06T13:14:21;15.10;;;11.20;;
76228;SDS011;65021;53.174;18.160;2023-08-06T13:16:48;14.00;;;11.10;;
76228;SDS011;65021;53.174;18.160;2023-08-06T13:19:18;13.90;;;10.10;;
76228;SDS011;65021;53.174;18.160;2023-08-06T13:24:23;14.60;;;10.90;;
76228;SDS011;65021;53.174;18.160;2023-08-06T13:26:51;13.30;;;10.20;;
76228;SDS011;65021;53.174;18.160;2023-08-06T13:29:18;13.00;;;9.30;;
76228;SDS011;65021;53.174;18.160;2023-08-06T13:31:46;14.20;;;10.40;;
76228;SDS011;65021;53.174;18.160;2023-08-06T13:34:15;16.00;;;10.30;;
76228;SDS011;65021;53.174;18.160;2023-08-06T13:36:44;13.00;;;10.10;;
76228;SDS011;65021;53.174;18.160;2023-08-06T13:39:11;13.60;;;10.00;;
76228;SDS011;65021;53.174;18.160;2023-08-06T13:41:47;15.70;;;10.70;;
76228;SDS011;65021;53.174;18.160;2023-08-06T13:44:13;13.70;;;9.50;;
76228;SDS011;65021;53.174;18.160;2023-08-06T13:46:42;13.20;;;10.00;;
76228;SDS011;65021;53.174;18.160;2023-08-06T13:49:11;13.10;;;10.00;;
76228;SDS011;65021;53.174;18.160;2023-08-06T13:51:38;14.80;;;10.20;;
76228;SDS011;65021;53.174;18.160;2023-08-06T13:54:05;16.60;;;11.50;;
76228;SDS011;65021;53.174;18.160;2023-08-06T13:56:34;15.00;;;11.60;;
76228;SDS011;65021;53.174;18.160;2023-08-06T13:59:01;13.80;;;11.10;;
76228;SDS011;65021;53.174;18.160;2023-08-06T14:01:29;13.80;;;10.80;;
76228;SDS011;65021;53.174;18.160;2023-08-06T14:03:57;17.30;;;11.50;;
76228;SDS011;65021;53.174;18.160;2023-08-06T14:08:55;14.20;;;11.00;;
76228;SDS011;65021;53.174;18.160;2023-08-06T14:11:22;15.50;;;12.50;;
76228;SDS011;65021;53.174;18.160;2023-08-06T14:13:48;16.70;;;11.00;;
76228;SDS011;65021;53.174;18.160;2023-08-06T14:16:16;16.60;;;11.00;;
76228;SDS011;65021;53.174;18.160;2023-08-06T14:18:45;16.00;;;10.60;;
76228;SDS011;65021;53.174;18.160;2023-08-06T14:21:13;18.40;;;12.20;;
76228;SDS011;65021;53.174;18.160;2023-08-06T14:23:40;17.00;;;12.50;;
76228;SDS011;65021;53.174;18.160;2023-08-06T14:26:08;16.60;;;12.10;;
76228;SDS011;65021;53.174;18.160;2023-08-06T14:28:38;17.60;;;12.30;;
76228;SDS011;65021;53.174;18.160;2023-08-06T14:31:06;16.20;;;11.80;;
76228;SDS011;65021;53.174;18.160;2023-08-06T14:33:33;16.50;;;12.80;;
76228;SDS011;65021;53.174;18.160;2023-08-06T14:36:00;16.60;;;12.50;;
76228;SDS011;65021;53.174;18.160;2023-08-06T14:38:28;15.70;;;11.90;;
76228;SDS011;65021;53.174;18.160;2023-08-06T14:41:03;19.00;;;12.40;;
76228;SDS011;65021;53.174;18.160;2023-08-06T14:43:30;18.10;;;12.40;;
76228;SDS011;65021;53.174;18.160;2023-08-06T14:45:58;15.90;;;11.20;;
76228;SDS011;65021;53.174;18.160;2023-08-06T14:48:25;16.80;;;12.30;;
76228;SDS011;65021;53.174;18.160;2023-08-06T14:50:55;18.20;;;13.20;;
76228;SDS011;65021;53.174;18.160;2023-08-06T14:53:22;15.50;;;11.00;;
76228;SDS011;65021;53.174;18.160;2023-08-06T14:55:49;17.70;;;12.60;;
76228;SDS011;65021;53.174;18.160;2023-08-06T14:58:19;16.10;;;12.80;;
76228;SDS011;65021;53.174;18.160;2023-08-06T15:00:46;17.60;;;10.60;;
76228;SDS011;65021;53.174;18.160;2023-08-06T15:03:13;15.30;;;11.10;;
76228;SDS011;65021;53.174;18.160;2023-08-06T15:05:43;14.20;;;10.10;;
76228;SDS011;65021;53.174;18.160;2023-08-06T15:08:11;11.60;;;8.10;;
76228;SDS011;65021;53.174;18.160;2023-08-06T15:10:38;11.20;;;8.30;;